Time;durP1;ratioP1;P1;durP2;ratioP2;P2;SDS_P1;SDS_P2;PMS_P1;PMS_P2;Temp;Humidity;BMP_temperature;BMP_pressure;BME280_temperature;BME280_humidity;BME280_pressure;Samples;Min_cycle;Max_cycle;Signal;HPM_P1;HPM_P2
2024/01/12 00:00:53;;;;;;;4.83;4.63;;;15.40;65.80;;;;;;5067473;27;43495;-70
2024/01/12 00:03:23;;;;;;;5.43;5.20;;;15.30;65.80;;;;;;5068663;28;43430;-70
2024/01/12 00:05:51;;;;;;;5.10;4.90;;;15.30;65.80;;;;;;5060816;28;45627;-70
2024/01/12 00:08:19;;;;;;;5.50;5.23;;;15.30;65.80;;;;;;5065945;27;43416;-70
2024/01/12 00:10:47;;;;;;;5.00;4.80;;;15.30;65.90;;;;;;5061513;28;43446;-69
2024/01/12 00:13:17;;;;;;;4.57;4.47;;;15.30;65.90;;;;;;5067692;27;43561;-69
2024/01/12 00:15:45;;;;;;;5.30;5.10;;;15.30;65.80;;;;;;5056542;28;43757;-69
2024/01/12 00:18:13;;;;;;;4.60;4.40;;;15.30;66.50;;;;;;5074457;27;43489;-70
2024/01/12 00:20:44;;;;;;;4.93;4.73;;;15.30;65.90;;;;;;5066720;27;43388;-70
2024/01/12 00:23:12;;;;;;;4.87;4.67;;;15.30;65.90;;;;;;5068374;27;43392;-70
2024/01/12 00:25:40;;;;;;;5.10;4.90;;;15.30;65.90;;;;;;5059912;28;46240;-69
2024/01/12 00:28:08;;;;;;;5.13;4.87;;;15.30;65.90;;;;;;5066303;28;43442;-70
2024/01/12 00:30:40;;;;;;;5.33;5.13;;;15.30;66.10;;;;;;5066116;28;43377;-70
2024/01/12 00:33:12;;;;;;;4.90;4.70;;;15.40;66.10;;;;;;5066839;28;43376;-70
2024/01/12 00:35:40;;;;;;;5.33;5.13;;;15.50;65.80;;;;;;5065889;27;43615;-69
2024/01/12 00:38:10;;;;;;;5.20;4.93;;;15.50;65.30;;;;;;5063780;28;43376;-70
2024/01/12 00:40:38;;;;;;;4.90;4.70;;;15.50;65.20;;;;;;5068935;27;43475;-69
2024/01/12 00:43:07;;;;;;;4.90;4.70;;;15.50;65.20;;;;;;5062321;28;43528;-69
2024/01/12 00:45:35;;;;;;;5.10;4.90;;;15.50;65.30;;;;;;5075737;28;43718;-70
2024/01/12 00:48:05;;;;;;;5.43;5.13;;;15.50;65.40;;;;;;5057723;28;45130;-69
2024/01/12 00:50:33;;;;;;;5.50;5.20;;;15.40;65.40;;;;;;5067239;28;43402;-68
2024/01/12 00:53:01;;;;;;;5.30;5.00;;;15.40;65.40;;;;;;5060652;28;43427;-69
2024/01/12 00:55:31;;;;;;;5.50;5.20;;;15.40;65.50;;;;;;5062628;27;43703;-68
2024/01/12 00:57:59;;;;;;;4.90;4.70;;;15.40;66.30;;;;;;5068278;27;43740;-70
2024/01/12 01:00:27;;;;;;;5.50;5.30;;;15.40;65.70;;;;;;5074085;28;43418;-69
2024/01/12 01:02:55;;;;;;;5.40;5.20;;;15.40;65.70;;;;;;5065848;28;43417;-69
2024/01/12 01:05:23;;;;;;;5.60;5.40;;;15.40;65.80;;;;;;5066800;27;45791;-69
2024/01/12 01:07:51;;;;;;;5.30;5.10;;;15.30;65.80;;;;;;5065097;27;43422;-69
2024/01/12 01:10:19;;;;;;;5.20;5.00;;;15.30;65.70;;;;;;5069729;27;43411;-69
2024/01/12 01:12:49;;;;;;;5.40;5.20;;;15.30;65.70;;;;;;5068979;28;43461;-69
2024/01/12 01:15:17;;;;;;;5.70;5.50;;;15.30;65.70;;;;;;5061314;27;43939;-69
2024/01/12 01:17:45;;;;;;;5.50;5.30;;;15.30;65.70;;;;;;5057473;27;43458;-69
2024/01/12 01:20:15;;;;;;;5.10;4.90;;;15.30;65.70;;;;;;5068133;28;43465;-69
2024/01/12 01:22:43;;;;;;;5.40;5.10;;;15.30;65.80;;;;;;5060158;28;43420;-69
2024/01/12 01:25:11;;;;;;;5.33;5.13;;;15.30;65.80;;;;;;5060346;27;43628;-70
2024/01/12 01:27:39;;;;;;;5.87;5.57;;;15.30;66.00;;;;;;5065475;27;43464;-71
2024/01/12 01:30:09;;;;;;;5.40;5.20;;;15.40;66.00;;;;;;5039785;28;43474;-71
2024/01/12 01:32:38;;;;;;;5.07;4.87;;;15.50;65.70;;;;;;5037705;28;44002;-71
2024/01/12 01:35:06;;;;;;;5.60;5.40;;;15.50;65.40;;;;;;5037049;28;43872;-71
2024/01/12 01:37:34;;;;;;;5.40;5.10;;;15.50;65.30;;;;;;5034667;28;43387;-71
2024/01/12 01:40:05;;;;;;;5.23;5.03;;;15.50;65.30;;;;;;5045659;28;43461;-70
2024/01/12 01:42:33;;;;;;;6.00;5.70;;;15.50;65.40;;;;;;5042354;28;43416;-71
2024/01/12 01:45:01;;;;;;;5.83;5.53;;;15.40;65.50;;;;;;5035072;28;45609;-71
2024/01/12 01:47:31;;;;;;;5.30;5.10;;;15.40;65.50;;;;;;5033423;28;43754;-71
2024/01/12 01:49:59;;;;;;;5.77;5.47;;;15.40;66.20;;;;;;5037264;28;43459;-72
2024/01/12 01:52:27;;;;;;;5.13;4.93;;;15.40;65.50;;;;;;5041193;28;43384;-71
2024/01/12 01:54:55;;;;;;;5.37;5.17;;;15.40;65.60;;;;;;5041392;28;43857;-71
2024/01/12 01:57:23;;;;;;;5.57;5.37;;;15.40;65.60;;;;;;5048570;28;43493;-71
2024/01/12 01:59:51;;;;;;;5.53;5.33;;;15.40;65.80;;;;;;5039534;28;43395;-71
2024/01/12 02:02:19;;;;;;;5.57;5.37;;;15.30;65.70;;;;;;5039049;28;43392;-71
2024/01/12 02:04:49;;;;;;;5.77;5.47;;;15.30;65.90;;;;;;5033726;28;43884;-72
2024/01/12 02:07:17;;;;;;;5.50;5.23;;;15.40;65.90;;;;;;5032150;28;43448;-70
2024/01/12 02:09:45;;;;;;;5.50;5.30;;;15.40;65.60;;;;;;5044063;28;43399;-70
2024/01/12 02:12:13;;;;;;;5.33;5.13;;;15.40;65.40;;;;;;5035064;28;43450;-71
2024/01/12 02:14:41;;;;;;;5.83;5.60;;;15.40;65.40;;;;;;5039179;28;43703;-71
2024/01/12 02:17:12;;;;;;;5.77;5.53;;;15.40;65.50;;;;;;5035974;28;43673;-71
2024/01/12 02:19:40;;;;;;;6.03;5.73;;;15.40;65.50;;;;;;5042880;28;43961;-71
2024/01/12 02:22:10;;;;;;;5.60;5.40;;;15.40;65.70;;;;;;5031771;28;43821;-71
2024/01/12 02:24:38;;;;;;;5.77;5.47;;;15.30;65.60;;;;;;5043938;28;43608;-78
2024/01/12 02:27:06;;;;;;;5.50;5.30;;;15.40;65.70;;;;;;5036454;28;43427;-70
2024/01/12 02:29:34;;;;;;;5.23;5.03;;;15.40;65.70;;;;;;5035603;28;43475;-70
2024/01/12 02:32:02;;;;;;;5.70;5.40;;;15.30;65.60;;;;;;5032850;28;43380;-70
2024/01/12 02:34:31;;;;;;;5.90;5.60;;;15.30;65.60;;;;;;5037792;28;45382;-70
2024/01/12 02:36:59;;;;;;;5.87;5.57;;;15.30;65.60;;;;;;5051249;28;43948;-70
2024/01/12 02:39:29;;;;;;;5.43;5.23;;;15.30;65.70;;;;;;5041391;28;43467;-71
2024/01/12 02:41:57;;;;;;;6.00;5.70;;;15.30;65.90;;;;;;5030121;28;43401;-71
2024/01/12 02:44:25;;;;;;;6.40;6.10;;;15.40;65.90;;;;;;5036780;28;43866;-71
2024/01/12 02:46:54;;;;;;;5.97;5.67;;;15.40;65.40;;;;;;5033270;28;44141;-71
2024/01/12 02:49:22;;;;;;;5.37;5.17;;;15.50;65.40;;;;;;5043148;28;43342;-73
2024/01/12 02:51:50;;;;;;;5.63;5.43;;;15.40;65.20;;;;;;5043276;28;43404;-72
2024/01/12 02:54:18;;;;;;;6.43;6.13;;;15.50;65.30;;;;;;5041139;28;43607;-71
2024/01/12 02:56:47;;;;;;;5.80;5.50;;;15.40;65.40;;;;;;5040924;28;43348;-72
2024/01/12 02:59:16;;;;;;;5.77;5.47;;;15.40;65.50;;;;;;5043923;28;43417;-72
2024/01/12 03:01:44;;;;;;;5.60;5.40;;;15.40;65.50;;;;;;5040300;28;43453;-73
2024/01/12 03:04:12;;;;;;;6.03;5.73;;;15.40;65.50;;;;;;5037543;28;47905;-73
2024/01/12 03:06:40;;;;;;;5.90;5.60;;;15.40;65.50;;;;;;5032524;28;43452;-71
2024/01/12 03:09:09;;;;;;;5.80;5.50;;;15.40;65.60;;;;;;5049665;28;43388;-71
2024/01/12 03:11:38;;;;;;;6.40;6.10;;;15.30;65.60;;;;;;5033026;28;43392;-71
2024/01/12 03:14:07;;;;;;;5.87;5.57;;;15.30;65.60;;;;;;5051270;28;43905;-71
2024/01/12 03:16:35;;;;;;;6.63;6.23;;;15.30;65.60;;;;;;5038068;28;43818;-71
2024/01/12 03:19:03;;;;;;;5.50;5.30;;;15.30;65.80;;;;;;5036856;28;43352;-71
2024/01/12 03:21:32;;;;;;;5.93;5.63;;;15.30;65.90;;;;;;5040173;28;43394;-71
2024/01/12 03:24:00;;;;;;;5.77;5.50;;;15.30;65.60;;;;;;5034562;28;43866;-71
2024/01/12 03:26:28;;;;;;;5.90;5.60;;;15.40;65.50;;;;;;5031918;28;43609;-73
2024/01/12 03:28:56;;;;;;;5.73;5.53;;;15.40;65.50;;;;;;5036261;28;43482;-71
2024/01/12 03:31:26;;;;;;;5.90;5.60;;;15.30;66.20;;;;;;5038437;28;43462;-71
2024/01/12 03:33:54;;;;;;;6.17;5.87;;;15.30;65.50;;;;;;5037141;28;43856;-71
2024/01/12 03:36:23;;;;;;;6.07;5.77;;;15.30;66.30;;;;;;5037539;28;43415;-72
2024/01/12 03:38:53;;;;;;;5.33;5.13;;;15.30;65.30;;;;;;5038203;28;43423;-71
2024/01/12 03:41:21;;;;;;;5.77;5.50;;;15.30;65.70;;;;;;5040020;28;43509;-71
2024/01/12 03:43:49;;;;;;;5.77;5.47;;;15.30;65.70;;;;;;5039198;28;45702;-71
2024/01/12 03:46:17;;;;;;;6.00;5.80;;;15.30;65.70;;;;;;5036130;28;43633;-73
2024/01/12 03:48:46;;;;;;;6.37;6.03;;;15.30;65.80;;;;;;5041860;28;43905;-71
2024/01/12 03:51:15;;;;;;;5.97;5.73;;;15.30;65.80;;;;;;5042444;28;43439;-71
2024/01/12 03:53:43;;;;;;;6.80;6.40;;;15.30;65.80;;;;;;5029038;28;43842;-71
2024/01/12 03:56:11;;;;;;;5.93;5.63;;;15.20;66.00;;;;;;5044796;28;43389;-72
2024/01/12 03:58:39;;;;;;;6.03;5.80;;;15.30;66.70;;;;;;5043540;28;43383;-73
2024/01/12 04:01:08;;;;;;;6.47;6.17;;;15.40;65.70;;;;;;5032205;28;43444;-71
2024/01/12 04:03:36;;;;;;;5.60;5.37;;;15.40;65.40;;;;;;5033486;28;43895;-71
2024/01/12 04:06:09;;;;;;;6.17;5.87;;;15.40;65.30;;;;;;5033192;28;44713;-70
2024/01/12 04:08:38;;;;;;;6.13;5.87;;;15.40;65.40;;;;;;5044251;28;43463;-72
2024/01/12 04:11:06;;;;;;;6.50;6.10;;;15.40;65.40;;;;;;5042288;28;43511;-72
2024/01/12 04:13:36;;;;;;;6.87;6.47;;;15.40;65.40;;;;;;5045206;28;45038;-72
2024/01/12 04:16:04;;;;;;;5.97;5.73;;;15.40;65.60;;;;;;5042407;28;43499;-72
2024/01/12 04:18:33;;;;;;;6.23;5.93;;;15.30;65.50;;;;;;5037706;28;43436;-72
2024/01/12 04:21:03;;;;;;;6.30;6.00;;;15.40;65.60;;;;;;5038796;28;43547;-72
2024/01/12 04:23:32;;;;;;;6.23;5.93;;;15.30;65.40;;;;;;5036527;28;43842;-72
2024/01/12 04:26:00;;;;;;;5.97;5.70;;;15.30;65.40;;;;;;5043661;28;43357;-72
2024/01/12 04:28:28;;;;;;;5.90;5.60;;;15.30;65.50;;;;;;5034079;28;43468;-72
2024/01/12 04:30:56;;;;;;;5.90;5.60;;;15.30;65.50;;;;;;5037278;28;43423;-72
2024/01/12 04:33:26;;;;;;;5.80;5.60;;;15.30;65.60;;;;;;5051146;28;43601;-72
2024/01/12 04:35:54;;;;;;;5.93;5.70;;;15.30;65.60;;;;;;5042605;28;43518;-72
2024/01/12 04:38:22;;;;;;;6.30;5.90;;;15.30;65.50;;;;;;5043818;28;43352;-72
2024/01/12 04:40:52;;;;;;;6.50;6.20;;;15.30;65.40;;;;;;5042407;28;43827;-72
2024/01/12 04:43:20;;;;;;;6.27;5.93;;;15.30;65.40;;;;;;5031215;28;43854;-72
2024/01/12 04:45:48;;;;;;;6.23;5.93;;;15.30;65.40;;;;;;5040773;28;43524;-71
2024/01/12 04:48:16;;;;;;;6.20;5.90;;;15.30;65.50;;;;;;5049605;28;43352;-72
2024/01/12 04:50:44;;;;;;;6.67;6.20;;;15.30;65.50;;;;;;5033852;28;44096;-72
2024/01/12 04:53:13;;;;;;;5.87;5.60;;;15.30;65.70;;;;;;5044031;28;43786;-72
2024/01/12 04:55:41;;;;;;;6.50;6.20;;;15.30;65.70;;;;;;5035637;28;43468;-72
2024/01/12 04:58:10;;;;;;;6.30;6.00;;;15.40;65.60;;;;;;5034844;28;43473;-72
2024/01/12 05:00:38;;;;;;;6.40;6.10;;;15.50;65.10;;;;;;5034453;28;44222;-72
2024/01/12 05:03:06;;;;;;;6.10;5.80;;;15.50;64.90;;;;;;5035268;28;43620;-72
2024/01/12 05:05:36;;;;;;;6.80;6.50;;;15.50;64.90;;;;;;5043060;28;43570;-72
2024/01/12 05:08:05;;;;;;;6.20;5.90;;;15.50;65.00;;;;;;5031848;28;43372;-72
2024/01/12 05:10:33;;;;;;;6.10;5.80;;;15.50;65.10;;;;;;5041737;28;43552;-72
2024/01/12 05:13:01;;;;;;;6.13;5.83;;;15.40;65.20;;;;;;5041038;28;45679;-72
2024/01/12 05:15:30;;;;;;;6.57;6.20;;;15.40;65.20;;;;;;5037421;28;43321;-72
2024/01/12 05:17:59;;;;;;;6.37;6.03;;;15.40;65.20;;;;;;5038749;28;43537;-72
2024/01/12 05:20:29;;;;;;;6.50;6.03;;;15.40;66.00;;;;;;5045233;28;44075;-72
2024/01/12 05:22:57;;;;;;;5.97;5.67;;;15.40;65.30;;;;;;5033592;28;45688;-72
2024/01/12 05:25:25;;;;;;;6.63;6.23;;;15.40;65.40;;;;;;5039651;28;43502;-72
2024/01/12 05:27:53;;;;;;;6.37;6.07;;;15.40;65.40;;;;;;5039793;28;43919;-71
2024/01/12 05:30:21;;;;;;;5.80;5.50;;;15.30;65.40;;;;;;5037772;28;43816;-72
2024/01/12 05:32:50;;;;;;;6.00;5.70;;;15.30;65.30;;;;;;5038337;28;43620;-71
2024/01/12 05:35:19;;;;;;;6.20;5.90;;;15.40;65.40;;;;;;5037298;28;43387;-71
2024/01/12 05:37:48;;;;;;;5.93;5.70;;;15.40;65.40;;;;;;5037557;28;43542;-71
2024/01/12 05:40:18;;;;;;;6.17;5.90;;;15.30;65.30;;;;;;5040639;28;44077;-72
2024/01/12 05:42:46;;;;;;;6.53;6.13;;;15.30;65.40;;;;;;5038394;28;43632;-71
2024/01/12 05:45:14;;;;;;;6.43;6.00;;;15.30;65.50;;;;;;5033104;28;44409;-71
2024/01/12 05:47:42;;;;;;;6.13;5.83;;;15.30;65.50;;;;;;5048873;28;43494;-72
2024/01/12 05:50:11;;;;;;;6.50;6.20;;;15.30;65.60;;;;;;5032923;28;43806;-72
2024/01/12 05:52:39;;;;;;;6.67;6.27;;;15.30;65.60;;;;;;5052169;28;43604;-72
2024/01/12 05:55:08;;;;;;;6.53;6.23;;;15.40;65.40;;;;;;5032267;28;43514;-72
2024/01/12 05:57:36;;;;;;;6.60;6.20;;;15.50;65.10;;;;;;5049028;28;43344;-71
2024/01/12 06:00:05;;;;;;;6.20;5.90;;;15.50;65.00;;;;;;5039055;28;43373;-72
2024/01/12 06:02:33;;;;;;;6.40;6.10;;;15.50;65.00;;;;;;5040725;28;44255;-71
2024/01/12 06:05:01;;;;;;;6.40;6.10;;;15.40;65.10;;;;;;5035370;28;43384;-72
2024/01/12 06:07:31;;;;;;;6.27;5.97;;;15.40;65.10;;;;;;5034804;28;43504;-72
2024/01/12 06:09:59;;;;;;;6.20;5.90;;;15.40;65.20;;;;;;5037939;28;43473;-72
2024/01/12 06:12:27;;;;;;;7.10;6.70;;;15.40;65.30;;;;;;5036802;28;43707;-71
2024/01/12 06:14:55;;;;;;;6.47;6.17;;;15.40;65.30;;;;;;5044730;28;43439;-71
2024/01/12 06:17:23;;;;;;;5.80;5.60;;;15.40;65.40;;;;;;5044234;28;43521;-72
2024/01/12 06:19:51;;;;;;;6.80;6.50;;;15.40;65.40;;;;;;5031401;28;43489;-72
2024/01/12 06:22:19;;;;;;;6.50;6.20;;;15.40;65.50;;;;;;5039402;28;43740;-72
2024/01/12 06:24:48;;;;;;;6.17;5.87;;;15.40;65.50;;;;;;5042642;28;43469;-72
2024/01/12 06:27:16;;;;;;;6.30;6.00;;;15.40;65.50;;;;;;5030243;28;43404;-79
2024/01/12 06:29:44;;;;;;;6.80;6.40;;;15.40;65.50;;;;;;5041789;28;43549;-72
2024/01/12 06:32:13;;;;;;;6.43;6.13;;;15.40;65.50;;;;;;5041082;28;43867;-71
2024/01/12 06:34:41;;;;;;;6.10;5.80;;;15.40;65.50;;;;;;5030201;28;43851;-72
2024/01/12 06:37:09;;;;;;;6.30;6.00;;;15.40;65.50;;;;;;5049653;28;43443;-72
2024/01/12 06:39:39;;;;;;;6.27;5.97;;;15.40;65.50;;;;;;5060074;28;43400;-70
2024/01/12 06:42:08;;;;;;;6.50;6.20;;;15.40;65.50;;;;;;5067868;28;43617;-70
2024/01/12 06:44:39;;;;;;;6.03;5.73;;;15.40;65.50;;;;;;5059414;28;43345;-71
2024/01/12 06:47:08;;;;;;;5.83;5.63;;;15.30;65.40;;;;;;5067051;27;43315;-70
2024/01/12 06:49:36;;;;;;;6.80;6.40;;;15.30;65.50;;;;;;5055079;28;43424;-70
2024/01/12 06:52:05;;;;;;;5.83;5.53;;;15.30;65.50;;;;;;5059857;28;43795;-70
2024/01/12 06:54:33;;;;;;;6.47;6.13;;;15.30;65.50;;;;;;5059089;27;43461;-70
2024/01/12 06:57:01;;;;;;;5.80;5.60;;;15.30;65.50;;;;;;5065060;27;43958;-71
2024/01/12 06:59:31;;;;;;;6.17;5.87;;;15.30;65.50;;;;;;5056756;28;43400;-70
2024/01/12 07:02:00;;;;;;;6.33;6.03;;;15.30;65.50;;;;;;5068658;28;43871;-68
2024/01/12 07:04:29;;;;;;;6.17;5.87;;;15.30;65.50;;;;;;5059070;28;43421;-69
2024/01/12 07:06:57;;;;;;;6.77;6.30;;;15.30;65.60;;;;;;5063841;27;43529;-69
2024/01/12 07:09:27;;;;;;;6.60;6.23;;;15.30;65.60;;;;;;5065412;28;43495;-69
2024/01/12 07:11:55;;;;;;;6.17;5.87;;;15.40;65.60;;;;;;5059132;27;44878;-69
2024/01/12 07:14:23;;;;;;;6.43;6.13;;;15.50;65.20;;;;;;5060900;28;43850;-69
2024/01/12 07:16:52;;;;;;;6.23;5.90;;;15.70;65.10;;;;;;5063285;27;43460;-69
2024/01/12 07:19:20;;;;;;;6.00;5.70;;;15.80;64.70;;;;;;5073448;27;43356;-68
2024/01/12 07:21:48;;;;;;;6.17;5.87;;;16.00;64.20;;;;;;5057581;28;45641;-69
2024/01/12 07:24:16;;;;;;;6.10;5.80;;;16.10;63.80;;;;;;5060519;27;43409;-69
2024/01/12 07:26:44;;;;;;;5.73;5.53;;;16.30;63.50;;;;;;5067487;27;43346;-69
2024/01/12 07:29:14;;;;;;;5.83;5.57;;;16.40;63.20;;;;;;5070152;27;43424;-69
2024/01/12 07:31:42;;;;;;;5.93;5.70;;;16.50;62.90;;;;;;5062898;27;43778;-69
2024/01/12 07:34:11;;;;;;;5.67;5.47;;;16.60;62.70;;;;;;5057494;28;43419;-69
2024/01/12 07:36:40;;;;;;;6.13;5.83;;;16.60;62.50;;;;;;5064449;27;43427;-69
2024/01/12 07:39:08;;;;;;;5.60;5.40;;;16.50;62.40;;;;;;5057073;28;43725;-69
2024/01/12 07:41:36;;;;;;;5.60;5.40;;;16.40;62.50;;;;;;5059283;28;43972;-68
2024/01/12 07:44:06;;;;;;;6.07;5.87;;;16.20;62.80;;;;;;5066526;27;43484;-69
2024/01/12 07:46:34;;;;;;;6.00;5.70;;;16.00;63.70;;;;;;5064208;28;43415;-68
2024/01/12 07:49:02;;;;;;;6.10;5.73;;;16.00;63.50;;;;;;5055879;28;43392;-71
2024/01/12 07:51:32;;;;;;;5.97;5.67;;;15.80;64.10;;;;;;5047765;28;43844;-71
2024/01/12 07:54:00;;;;;;;5.37;5.17;;;15.80;64.20;;;;;;5046375;28;44081;-71
2024/01/12 07:56:28;;;;;;;5.30;5.10;;;15.70;64.20;;;;;;5041928;28;43368;-71
2024/01/12 07:58:57;;;;;;;5.63;5.43;;;15.70;64.40;;;;;;5039544;28;43398;-71
2024/01/12 08:01:25;;;;;;;5.80;5.50;;;15.60;64.40;;;;;;5038096;28;43891;-71
2024/01/12 08:03:53;;;;;;;5.97;5.67;;;15.60;64.60;;;;;;5033034;28;43453;-72
2024/01/12 08:06:21;;;;;;;5.97;5.67;;;15.50;64.90;;;;;;5042906;28;44021;-71
2024/01/12 08:08:51;;;;;;;5.53;5.33;;;15.50;65.00;;;;;;5046999;28;43353;-71
2024/01/12 08:11:19;;;;;;;5.80;5.57;;;15.50;65.00;;;;;;5041996;28;43856;-71
2024/01/12 08:14:02;;;;;;;5.47;5.27;;;15.50;65.00;;;;;;5047382;28;43503;-73
2024/01/12 08:16:31;;;;;;;5.60;5.40;;;15.50;65.10;;;;;;5043671;28;44210;-71
2024/01/12 08:18:59;;;;;;;5.50;5.30;;;15.50;65.20;;;;;;5038534;28;43879;-71
2024/01/12 08:21:28;;;;;;;5.63;5.40;;;15.40;65.10;;;;;;5045896;28;43843;-71
2024/01/12 08:24:12;;;;;;;5.73;5.50;;;15.40;65.40;;;;;;5037630;28;43618;-71
2024/01/12 08:26:40;;;;;;;6.03;5.73;;;15.40;65.70;;;;;;5042341;28;43689;-71
2024/01/12 08:29:09;;;;;;;5.67;5.47;;;15.50;65.70;;;;;;5044353;28;43444;-71
2024/01/12 08:31:37;;;;;;;6.00;5.70;;;15.60;65.30;;;;;;5036114;28;43911;-72
2024/01/12 08:34:05;;;;;;;5.80;5.60;;;15.60;64.80;;;;;;5050377;28;43451;-71
2024/01/12 08:36:33;;;;;;;5.27;5.07;;;15.60;64.60;;;;;;5040665;28;43475;-71
2024/01/12 08:39:01;;;;;;;5.20;5.00;;;15.60;64.70;;;;;;5044963;28;43335;-71
2024/01/12 08:41:31;;;;;;;5.20;5.00;;;15.60;65.00;;;;;;5037786;28;43706;-71
2024/01/12 08:43:59;;;;;;;5.43;5.23;;;15.50;64.90;;;;;;5040521;28;43435;-70
2024/01/12 08:46:27;;;;;;;4.73;4.60;;;15.50;64.90;;;;;;5049459;28;43423;-71
2024/01/12 08:48:55;;;;;;;5.07;4.87;;;15.50;65.00;;;;;;5037015;28;43503;-71
2024/01/12 08:51:24;;;;;;;5.13;4.93;;;15.50;65.10;;;;;;5037066;28;46166;-71
2024/01/12 08:53:52;;;;;;;4.63;4.50;;;15.50;65.10;;;;;;5042584;28;43416;-71
2024/01/12 08:56:20;;;;;;;5.40;5.20;;;15.40;65.10;;;;;;5039179;28;43417;-71
2024/01/12 08:58:50;;;;;;;5.27;5.07;;;15.40;65.30;;;;;;5043061;28;43583;-71
2024/01/12 09:01:18;;;;;;;5.10;4.90;;;15.40;65.40;;;;;;5048814;28;43564;-71
2024/01/12 09:03:46;;;;;;;4.33;4.23;;;15.40;65.40;;;;;;5033035;28;43461;-73
2024/01/12 09:06:21;;;;;;;5.00;4.80;;;15.40;65.40;;;;;;5039081;28;43392;-71
2024/01/12 09:08:49;;;;;;;4.90;4.70;;;15.40;65.50;;;;;;5035298;28;43511;-71
2024/01/12 09:11:17;;;;;;;4.70;4.60;;;15.40;65.40;;;;;;5046447;28;43788;-71
2024/01/12 09:13:45;;;;;;;4.83;4.63;;;15.40;65.60;;;;;;5038569;28;44738;-72
2024/01/12 09:16:15;;;;;;;4.83;4.57;;;15.30;65.60;;;;;;5042915;28;43438;-71
2024/01/12 09:18:43;;;;;;;4.63;4.53;;;15.30;65.70;;;;;;5034952;28;43554;-71
2024/01/12 09:21:14;;;;;;;4.93;4.73;;;15.40;65.70;;;;;;5039711;28;43952;-71
2024/01/12 09:23:43;;;;;;;4.50;4.37;;;15.50;65.30;;;;;;5046279;28;43412;-73
2024/01/12 09:26:11;;;;;;;4.47;4.27;;;15.50;65.00;;;;;;5038740;28;43491;-71
2024/01/12 09:28:40;;;;;;;4.50;4.40;;;15.50;65.00;;;;;;5038193;28;43504;-71
2024/01/12 09:31:08;;;;;;;4.20;4.10;;;15.50;65.10;;;;;;5043945;28;43929;-70
2024/01/12 09:33:38;;;;;;;4.37;4.27;;;15.50;65.20;;;;;;5041965;28;43530;-71
2024/01/12 09:36:07;;;;;;;4.40;4.30;;;15.40;65.30;;;;;;5044989;28;43461;-71
2024/01/12 09:38:35;;;;;;;4.60;4.40;;;15.40;65.30;;;;;;5038127;28;43533;-71
2024/01/12 09:41:03;;;;;;;4.20;4.10;;;15.40;65.30;;;;;;5040048;28;45847;-71
2024/01/12 09:43:32;;;;;;;4.23;4.13;;;15.40;65.40;;;;;;5044648;28;44026;-72
2024/01/12 09:46:01;;;;;;;4.03;3.90;;;15.40;65.40;;;;;;5039500;28;43821;-71
2024/01/12 09:48:30;;;;;;;4.37;4.27;;;15.40;65.40;;;;;;5040433;28;43352;-72
2024/01/12 09:50:59;;;;;;;4.00;3.90;;;15.40;65.50;;;;;;5044251;28;44204;-71
2024/01/12 09:53:28;;;;;;;3.87;3.77;;;15.30;65.50;;;;;;5031443;28;44656;-70
2024/01/12 09:55:56;;;;;;;4.70;4.50;;;15.30;65.50;;;;;;5029776;28;43455;-71
2024/01/12 09:58:34;;;;;;;4.03;3.93;;;15.30;65.50;;;;;;5039016;28;43405;-71
2024/01/12 10:01:02;;;;;;;4.00;3.90;;;15.30;65.50;;;;;;5033345;28;44089;-71
2024/01/12 10:03:30;;;;;;;4.27;4.07;;;15.30;65.50;;;;;;5035003;28;43447;-71
2024/01/12 10:06:00;;;;;;;4.00;3.90;;;15.30;65.60;;;;;;5044012;28;43947;-71
2024/01/12 10:08:35;;;;;;;3.80;3.70;;;15.30;65.60;;;;;;5052287;28;43431;-71
2024/01/12 10:11:04;;;;;;;4.13;3.93;;;15.30;65.80;;;;;;5047192;28;45713;-70
2024/01/12 10:13:32;;;;;;;4.10;4.00;;;15.30;65.80;;;;;;5060897;28;43334;-71
2024/01/12 10:16:01;;;;;;;4.30;4.10;;;15.40;65.70;;;;;;5060142;28;43434;-71
2024/01/12 10:18:30;;;;;;;3.80;3.70;;;15.50;65.20;;;;;;5052680;28;43408;-71
2024/01/12 10:21:03;;;;;;;4.17;4.07;;;15.50;65.10;;;;;;5057468;28;43679;-70
2024/01/12 10:23:31;;;;;;;3.87;3.77;;;15.50;65.00;;;;;;5054576;28;43447;-70
2024/01/12 10:26:00;;;;;;;4.30;4.17;;;15.50;65.20;;;;;;5043578;28;43767;-71
2024/01/12 10:28:29;;;;;;;3.60;3.50;;;15.50;65.40;;;;;;5052728;28;43899;-70
2024/01/12 10:30:57;;;;;;;4.03;3.93;;;15.40;65.30;;;;;;5048318;28;43575;-70
2024/01/12 10:33:25;;;;;;;4.00;3.90;;;15.40;65.40;;;;;;5056212;28;44887;-70
2024/01/12 10:36:00;;;;;;;3.77;3.67;;;15.40;65.40;;;;;;5054898;28;43474;-71
2024/01/12 10:38:29;;;;;;;3.93;3.83;;;15.40;65.50;;;;;;5052636;28;43550;-70
2024/01/12 10:40:57;;;;;;;3.83;3.73;;;15.40;65.40;;;;;;5057150;28;46025;-71
2024/01/12 10:43:25;;;;;;;3.87;3.73;;;15.40;65.50;;;;;;5051530;28;43383;-71
2024/01/12 10:45:56;;;;;;;3.80;3.70;;;15.30;65.50;;;;;;5044435;28;43412;-71
2024/01/12 10:48:25;;;;;;;3.50;3.40;;;15.30;65.50;;;;;;5055819;28;43749;-71
2024/01/12 10:50:56;;;;;;;3.77;3.67;;;15.30;65.60;;;;;;5069058;28;43568;-71
2024/01/12 10:53:27;;;;;;;3.77;3.67;;;15.30;65.60;;;;;;5058773;28;44785;-70
2024/01/12 10:55:58;;;;;;;3.47;3.37;;;15.30;65.60;;;;;;5053962;28;43450;-70
2024/01/12 10:58:26;;;;;;;3.83;3.73;;;15.30;65.60;;;;;;5054857;28;43497;-71
2024/01/12 11:00:54;;;;;;;3.47;3.37;;;15.30;65.70;;;;;;5047665;28;43906;-71
2024/01/12 11:03:22;;;;;;;3.40;3.30;;;15.30;65.70;;;;;;5056736;28;43427;-70
2024/01/12 11:05:51;;;;;;;3.90;3.80;;;15.30;65.90;;;;;;5055378;28;43471;-72
2024/01/12 11:08:22;;;;;;;3.60;3.50;;;15.40;65.80;;;;;;5047928;28;43390;-72
2024/01/12 11:10:51;;;;;;;3.70;3.60;;;15.50;65.40;;;;;;5075465;28;46408;-71
2024/01/12 11:13:20;;;;;;;3.50;3.40;;;15.50;65.20;;;;;;5057970;28;43532;-71
2024/01/12 11:15:51;;;;;;;3.40;3.30;;;15.50;65.30;;;;;;5055830;28;43409;-72
2024/01/12 11:18:19;;;;;;;3.70;3.60;;;15.50;66.10;;;;;;5050073;28;43383;-72
2024/01/12 11:20:48;;;;;;;3.70;3.60;;;15.50;65.40;;;;;;5041042;28;43612;-71
2024/01/12 11:23:17;;;;;;;3.53;3.43;;;15.40;65.50;;;;;;5047747;28;43475;-72
2024/01/12 11:25:45;;;;;;;3.40;3.30;;;15.40;65.50;;;;;;5032865;28;43439;-72
2024/01/12 11:28:14;;;;;;;3.40;3.30;;;15.40;65.50;;;;;;5043044;28;43388;-72
2024/01/12 11:30:44;;;;;;;3.30;3.20;;;15.40;65.50;;;;;;5039681;28;43998;-72
2024/01/12 11:33:12;;;;;;;3.53;3.43;;;15.40;65.60;;;;;;5037481;28;43997;-72
2024/01/12 11:35:40;;;;;;;3.70;3.60;;;15.40;65.60;;;;;;5046911;28;43977;-72
2024/01/12 11:38:10;;;;;;;3.30;3.20;;;15.30;65.60;;;;;;5041636;28;43463;-72
2024/01/12 11:40:38;;;;;;;3.27;3.17;;;15.30;65.60;;;;;;5044084;28;43918;-71
2024/01/12 11:43:06;;;;;;;3.43;3.33;;;15.30;65.60;;;;;;5044671;28;43402;-72
2024/01/12 11:45:39;;;;;;;3.10;3.00;;;15.30;65.60;;;;;;5047165;28;43403;-71
2024/01/12 11:48:09;;;;;;;3.50;3.37;;;15.30;65.60;;;;;;5053756;28;44213;-71
2024/01/12 11:50:37;;;;;;;3.23;3.13;;;15.40;65.80;;;;;;5043252;28;44375;-70
2024/01/12 11:53:08;;;;;;;3.50;3.40;;;15.30;65.70;;;;;;5044590;28;45547;-71
2024/01/12 11:55:37;;;;;;;3.40;3.30;;;15.30;65.70;;;;;;5049465;28;43308;-70
2024/01/12 11:58:05;;;;;;;3.13;3.03;;;15.30;65.70;;;;;;5039307;28;43378;-70
2024/01/12 12:00:34;;;;;;;3.40;3.30;;;15.30;65.90;;;;;;5047409;28;43956;-70
2024/01/12 12:03:02;;;;;;;3.30;3.20;;;15.30;65.80;;;;;;5046088;28;44732;-71
2024/01/12 12:05:31;;;;;;;3.70;3.60;;;15.40;65.50;;;;;;5038492;28;43335;-71
2024/01/12 12:08:00;;;;;;;3.30;3.20;;;15.50;65.30;;;;;;5043801;28;44058;-70
2024/01/12 12:10:28;;;;;;;3.40;3.30;;;15.50;65.20;;;;;;5039380;28;43932;-71
2024/01/12 12:13:10;;;;;;;3.37;3.27;;;15.50;65.20;;;;;;5044289;28;43400;-71
2024/01/12 12:15:38;;;;;;;3.17;3.07;;;15.40;65.30;;;;;;5030976;28;43428;-71
2024/01/12 12:18:07;;;;;;;3.33;3.23;;;15.50;65.50;;;;;;5044011;28;43400;-76
2024/01/12 12:20:37;;;;;;;3.23;3.13;;;15.40;65.40;;;;;;5040263;28;43905;-71
2024/01/12 12:23:07;;;;;;;3.03;2.93;;;15.40;65.50;;;;;;5044177;28;43435;-70
2024/01/12 12:25:35;;;;;;;3.20;3.10;;;15.40;65.50;;;;;;5046265;28;44079;-70
2024/01/12 12:28:03;;;;;;;3.23;3.03;;;15.40;65.50;;;;;;5046505;28;43519;-71
2024/01/12 12:30:32;;;;;;;3.07;2.97;;;15.40;65.50;;;;;;5039227;28;43737;-70
2024/01/12 12:33:00;;;;;;;3.10;3.10;;;15.40;65.60;;;;;;5042845;28;43436;-71
2024/01/12 12:35:28;;;;;;;3.13;3.10;;;15.30;65.60;;;;;;5039247;28;43534;-70
2024/01/12 12:38:01;;;;;;;2.87;2.87;;;15.30;65.70;;;;;;5037584;28;43981;-70
2024/01/12 12:40:29;;;;;;;3.43;3.33;;;15.40;65.90;;;;;;5037861;28;43624;-71
2024/01/12 12:42:58;;;;;;;3.33;3.23;;;15.40;65.60;;;;;;5046892;28;43374;-71
2024/01/12 12:45:26;;;;;;;2.93;2.93;;;15.40;65.40;;;;;;5038593;28;44261;-70
2024/01/12 12:47:55;;;;;;;3.00;2.90;;;15.40;65.40;;;;;;5038430;28;43417;-71
2024/01/12 12:50:24;;;;;;;3.00;2.90;;;15.40;65.40;;;;;;5035216;28;43779;-71
2024/01/12 12:52:52;;;;;;;3.13;3.07;;;15.40;65.50;;;;;;5047286;28;43961;-71
2024/01/12 12:55:22;;;;;;;3.50;3.40;;;15.40;65.60;;;;;;5042738;28;43404;-71